sensor_id;sensor_type;location;lat;lon;timestamp;temperature;humidity
18805;DHT22;9530;48.930;9.526;2023-02-28T00:00:37;-1.40;99.90
18805;DHT22;9530;48.930;9.526;2023-02-28T00:03:05;-1.50;99.90
18805;DHT22;9530;48.930;9.526;2023-02-28T00:05:33;-1.50;99.90
18805;DHT22;9530;48.930;9.526;2023-02-28T00:08:00;-1.40;99.90
18805;DHT22;9530;48.930;9.526;2023-02-28T00:10:29;-1.40;99.90
18805;DHT22;9530;48.930;9.526;2023-02-28T00:13:02;-1.40;99.90
18805;DHT22;9530;48.930;9.526;2023-02-28T00:15:29;-1.40;99.90
18805;DHT22;9530;48.930;9.526;2023-02-28T00:17:56;-1.40;99.90
18805;DHT22;9530;48.930;9.526;2023-02-28T00:20:24;-1.40;99.90
18805;DHT22;9530;48.930;9.526;2023-02-28T00:22:53;-1.40;99.90
18805;DHT22;9530;48.930;9.526;2023-02-28T00:25:22;-1.50;99.90
18805;DHT22;9530;48.930;9.526;2023-02-28T00:27:49;-1.50;99.90
18805;DHT22;9530;48.930;9.526;2023-02-28T00:30:17;-1.40;99.90
18805;DHT22;9530;48.930;9.526;2023-02-28T00:32:44;-1.50;99.90
18805;DHT22;9530;48.930;9.526;2023-02-28T00:35:11;-1.40;99.90
18805;DHT22;9530;48.930;9.526;2023-02-28T00:37:39;-1.50;99.90
18805;DHT22;9530;48.930;9.526;2023-02-28T00:40:07;-1.50;99.90
18805;DHT22;9530;48.930;9.526;2023-02-28T00:42:35;-1.50;99.90
18805;DHT22;9530;48.930;9.526;2023-02-28T00:45:03;-1.40;99.90
18805;DHT22;9530;48.930;9.526;2023-02-28T00:47:30;-1.50;99.90
18805;DHT22;9530;48.930;9.526;2023-02-28T00:49:57;-1.50;99.90
18805;DHT22;9530;48.930;9.526;2023-02-28T00:52:24;-1.40;99.90
18805;DHT22;9530;48.930;9.526;2023-02-28T00:54:52;-1.40;99.90
18805;DHT22;9530;48.930;9.526;2023-02-28T00:57:19;-1.50;99.90
18805;DHT22;9530;48.930;9.526;2023-02-28T00:59:45;-1.50;99.90
18805;DHT22;9530;48.930;9.526;2023-02-28T01:02:12;-1.50;99.90
18805;DHT22;9530;48.930;9.526;2023-02-28T01:04:38;-1.50;99.90
18805;DHT22;9530;48.930;9.526;2023-02-28T01:07:05;-1.50;99.90
18805;DHT22;9530;48.930;9.526;2023-02-28T01:09:32;-1.60;99.90
18805;DHT22;9530;48.930;9.526;2023-02-28T01:12:00;-1.60;99.90
18805;DHT22;9530;48.930;9.526;2023-02-28T01:14:27;-1.60;99.90
18805;DHT22;9530;48.930;9.526;2023-02-28T01:16:53;-1.60;99.90
18805;DHT22;9530;48.930;9.526;2023-02-28T01:19:20;-1.60;99.90
18805;DHT22;9530;48.930;9.526;2023-02-28T01:21:47;-1.60;99.90
18805;DHT22;9530;48.930;9.526;2023-02-28T01:24:13;-1.60;99.90
18805;DHT22;9530;48.930;9.526;2023-02-28T01:26:40;-1.60;99.90
18805;DHT22;9530;48.930;9.526;2023-02-28T01:29:08;-1.70;99.90
18805;DHT22;9530;48.930;9.526;2023-02-28T01:31:35;-1.60;99.90
18805;DHT22;9530;48.930;9.526;2023-02-28T01:34:02;-1.60;99.90
18805;DHT22;9530;48.930;9.526;2023-02-28T01:36:29;-1.60;99.90
18805;DHT22;9530;48.930;9.526;2023-02-28T01:38:56;-1.60;99.90
18805;DHT22;9530;48.930;9.526;2023-02-28T01:41:24;-1.60;99.90
18805;DHT22;9530;48.930;9.526;2023-02-28T01:43:57;-1.60;99.90
18805;DHT22;9530;48.930;9.526;2023-02-28T01:46:25;-1.60;99.90
18805;DHT22;9530;48.930;9.526;2023-02-28T01:48:57;-1.60;99.90
18805;DHT22;9530;48.930;9.526;2023-02-28T01:51:29;-1.60;99.90
18805;DHT22;9530;48.930;9.526;2023-02-28T01:53:58;-1.60;99.90
18805;DHT22;9530;48.930;9.526;2023-02-28T01:56:29;-1.70;99.90
18805;DHT22;9530;48.930;9.526;2023-02-28T01:58:56;-1.60;99.90
18805;DHT22;9530;48.930;9.526;2023-02-28T02:01:25;-1.60;99.90
18805;DHT22;9530;48.930;9.526;2023-02-28T02:03:55;-1.60;99.90
18805;DHT22;9530;48.930;9.526;2023-02-28T02:06:22;-1.60;99.90
18805;DHT22;9530;48.930;9.526;2023-02-28T02:08:49;-1.60;99.90
18805;DHT22;9530;48.930;9.526;2023-02-28T02:11:19;-1.60;99.90
18805;DHT22;9530;48.930;9.526;2023-02-28T02:16:50;-1.70;99.90
18805;DHT22;9530;48.930;9.526;2023-02-28T02:22:38;-1.60;99.90
18805;DHT22;9530;48.930;9.526;2023-02-28T02:25:22;-1.60;99.90
18805;DHT22;9530;48.930;9.526;2023-02-28T02:28:04;-1.60;99.90
18805;DHT22;9530;48.930;9.526;2023-02-28T02:30:45;-1.60;99.90
18805;DHT22;9530;48.930;9.526;2023-02-28T02:33:40;-1.50;99.90
18805;DHT22;9530;48.930;9.526;2023-02-28T02:36:18;-1.50;99.90
18805;DHT22;9530;48.930;9.526;2023-02-28T02:38:52;-1.40;99.90
18805;DHT22;9530;48.930;9.526;2023-02-28T02:41:28;-1.40;99.90
18805;DHT22;9530;48.930;9.526;2023-02-28T02:44:03;-1.40;99.90
18805;DHT22;9530;48.930;9.526;2023-02-28T02:46:34;-1.40;99.90
18805;DHT22;9530;48.930;9.526;2023-02-28T02:49:05;-1.40;99.90
18805;DHT22;9530;48.930;9.526;2023-02-28T02:51:35;-1.40;99.90
18805;DHT22;9530;48.930;9.526;2023-02-28T02:54:08;-1.40;99.90
18805;DHT22;9530;48.930;9.526;2023-02-28T02:56:39;-1.30;99.90
18805;DHT22;9530;48.930;9.526;2023-02-28T02:59:10;-1.30;99.90
18805;DHT22;9530;48.930;9.526;2023-02-28T03:01:38;-1.30;99.90
18805;DHT22;9530;48.930;9.526;2023-02-28T03:04:09;-1.40;99.90
18805;DHT22;9530;48.930;9.526;2023-02-28T03:06:38;-1.40;99.90
18805;DHT22;9530;48.930;9.526;2023-02-28T03:09:05;-1.50;99.90
18805;DHT22;9530;48.930;9.526;2023-02-28T03:11:32;-1.40;99.90
18805;DHT22;9530;48.930;9.526;2023-02-28T03:14:22;-1.40;99.90
18805;DHT22;9530;48.930;9.526;2023-02-28T03:17:23;-1.40;99.90
18805;DHT22;9530;48.930;9.526;2023-02-28T03:20:01;-1.40;99.90
18805;DHT22;9530;48.930;9.526;2023-02-28T03:22:49;-1.30;99.90
18805;DHT22;9530;48.930;9.526;2023-02-28T03:25:22;-1.30;99.90
18805;DHT22;9530;48.930;9.526;2023-02-28T03:27:59;-1.30;99.90
18805;DHT22;9530;48.930;9.526;2023-02-28T03:30:33;-1.30;99.90
18805;DHT22;9530;48.930;9.526;2023-02-28T03:33:05;-1.40;99.90
18805;DHT22;9530;48.930;9.526;2023-02-28T03:35:35;-1.40;99.90
18805;DHT22;9530;48.930;9.526;2023-02-28T03:38:08;-1.40;99.90
18805;DHT22;9530;48.930;9.526;2023-02-28T03:40:41;-1.30;99.90
18805;DHT22;9530;48.930;9.526;2023-02-28T03:43:12;-1.30;99.90
18805;DHT22;9530;48.930;9.526;2023-02-28T03:45:42;-1.30;99.90
18805;DHT22;9530;48.930;9.526;2023-02-28T03:48:13;-1.40;99.90
18805;DHT22;9530;48.930;9.526;2023-02-28T03:50:44;-1.30;99.90
18805;DHT22;9530;48.930;9.526;2023-02-28T03:53:15;-1.30;99.90
18805;DHT22;9530;48.930;9.526;2023-02-28T03:55:45;-1.30;99.90
18805;DHT22;9530;48.930;9.526;2023-02-28T03:58:17;-1.30;99.90
18805;DHT22;9530;48.930;9.526;2023-02-28T04:00:47;-1.30;99.90
18805;DHT22;9530;48.930;9.526;2023-02-28T04:03:15;-1.40;99.90
18805;DHT22;9530;48.930;9.526;2023-02-28T04:05:50;-1.30;99.90
18805;DHT22;9530;48.930;9.526;2023-02-28T04:08:18;-1.30;99.90
18805;DHT22;9530;48.930;9.526;2023-02-28T04:10:49;-1.30;99.90
18805;DHT22;9530;48.930;9.526;2023-02-28T04:13:17;-1.30;99.90
18805;DHT22;9530;48.930;9.526;2023-02-28T04:15:44;-1.30;99.90
18805;DHT22;9530;48.930;9.526;2023-02-28T04:18:11;-1.30;99.90
18805;DHT22;9530;48.930;9.526;2023-02-28T04:20:37;-1.20;99.90
18805;DHT22;9530;48.930;9.526;2023-02-28T04:23:04;-1.20;99.90
18805;DHT22;9530;48.930;9.526;2023-02-28T04:25:32;-1.20;99.90
18805;DHT22;9530;48.930;9.526;2023-02-28T04:27:58;-1.20;99.90
18805;DHT22;9530;48.930;9.526;2023-02-28T04:30:25;-1.20;99.90
18805;DHT22;9530;48.930;9.526;2023-02-28T04:32:52;-1.20;99.90
18805;DHT22;9530;48.930;9.526;2023-02-28T04:35:18;-1.20;99.90
18805;DHT22;9530;48.930;9.526;2023-02-28T04:37:45;-1.20;99.90
18805;DHT22;9530;48.930;9.526;2023-02-28T04:40:12;-1.20;99.90
18805;DHT22;9530;48.930;9.526;2023-02-28T04:42:40;-1.10;99.90
18805;DHT22;9530;48.930;9.526;2023-02-28T04:45:08;-1.10;99.90
18805;DHT22;9530;48.930;9.526;2023-02-28T04:47:36;-1.10;99.90
18805;DHT22;9530;48.930;9.526;2023-02-28T04:50:03;-1.00;99.90
18805;DHT22;9530;48.930;9.526;2023-02-28T04:52:30;-1.00;99.90
18805;DHT22;9530;48.930;9.526;2023-02-28T04:54:56;-1.00;99.90
18805;DHT22;9530;48.930;9.526;2023-02-28T04:57:23;-1.00;99.90
18805;DHT22;9530;48.930;9.526;2023-02-28T04:59:51;-1.00;99.90
18805;DHT22;9530;48.930;9.526;2023-02-28T05:02:18;-1.00;99.90
18805;DHT22;9530;48.930;9.526;2023-02-28T05:04:46;-1.00;99.90
18805;DHT22;9530;48.930;9.526;2023-02-28T05:07:13;-1.00;99.90
18805;DHT22;9530;48.930;9.526;2023-02-28T05:09:39;-1.00;99.90
18805;DHT22;9530;48.930;9.526;2023-02-28T05:12:06;-1.00;99.90
18805;DHT22;9530;48.930;9.526;2023-02-28T05:14:34;-1.00;99.90
18805;DHT22;9530;48.930;9.526;2023-02-28T05:17:03;-1.00;99.90
18805;DHT22;9530;48.930;9.526;2023-02-28T05:19:30;-1.00;99.90
18805;DHT22;9530;48.930;9.526;2023-02-28T05:21:56;-1.00;99.90
18805;DHT22;9530;48.930;9.526;2023-02-28T05:24:23;-1.00;99.90
18805;DHT22;9530;48.930;9.526;2023-02-28T05:26:51;-1.00;99.90
18805;DHT22;9530;48.930;9.526;2023-02-28T05:29:18;-1.00;99.90
18805;DHT22;9530;48.930;9.526;2023-02-28T05:31:45;-1.00;99.90
18805;DHT22;9530;48.930;9.526;2023-02-28T05:34:13;-0.90;99.90
18805;DHT22;9530;48.930;9.526;2023-02-28T05:36:41;-1.00;99.90
18805;DHT22;9530;48.930;9.526;2023-02-28T05:39:08;-1.00;99.90
18805;DHT22;9530;48.930;9.526;2023-02-28T05:41:38;-1.00;99.90
18805;DHT22;9530;48.930;9.526;2023-02-28T05:44:05;-1.00;99.90
18805;DHT22;9530;48.930;9.526;2023-02-28T05:46:32;-1.00;99.90
18805;DHT22;9530;48.930;9.526;2023-02-28T05:48:58;-1.00;99.90
18805;DHT22;9530;48.930;9.526;2023-02-28T05:51:27;-0.90;99.90
18805;DHT22;9530;48.930;9.526;2023-02-28T05:53:54;-1.00;99.90
18805;DHT22;9530;48.930;9.526;2023-02-28T05:56:22;-0.90;99.90
18805;DHT22;9530;48.930;9.526;2023-02-28T05:58:48;-0.90;99.90
18805;DHT22;9530;48.930;9.526;2023-02-28T06:01:31;-0.90;99.90
18805;DHT22;9530;48.930;9.526;2023-02-28T06:03:58;-0.90;99.90
18805;DHT22;9530;48.930;9.526;2023-02-28T06:06:26;-0.90;99.90
18805;DHT22;9530;48.930;9.526;2023-02-28T06:08:53;-0.90;99.90
18805;DHT22;9530;48.930;9.526;2023-02-28T06:11:20;-0.90;99.90
18805;DHT22;9530;48.930;9.526;2023-02-28T06:13:47;-0.90;99.90
18805;DHT22;9530;48.930;9.526;2023-02-28T06:16:14;-0.90;99.90
18805;DHT22;9530;48.930;9.526;2023-02-28T06:18:40;-0.90;99.90
18805;DHT22;9530;48.930;9.526;2023-02-28T06:21:07;-0.90;99.90
18805;DHT22;9530;48.930;9.526;2023-02-28T06:23:35;-1.00;99.90
18805;DHT22;9530;48.930;9.526;2023-02-28T06:26:02;-1.00;99.90
18805;DHT22;9530;48.930;9.526;2023-02-28T06:28:29;-0.90;99.90
18805;DHT22;9530;48.930;9.526;2023-02-28T06:30:56;-0.90;99.90
18805;DHT22;9530;48.930;9.526;2023-02-28T06:33:23;-0.80;99.90
18805;DHT22;9530;48.930;9.526;2023-02-28T06:35:50;-0.80;99.90
18805;DHT22;9530;48.930;9.526;2023-02-28T06:38:17;-0.70;99.90
18805;DHT22;9530;48.930;9.526;2023-02-28T06:40:53;-0.70;99.90
18805;DHT22;9530;48.930;9.526;2023-02-28T06:43:19;-0.70;99.90
18805;DHT22;9530;48.930;9.526;2023-02-28T06:45:46;-0.80;99.90
18805;DHT22;9530;48.930;9.526;2023-02-28T06:48:13;-0.80;99.90
18805;DHT22;9530;48.930;9.526;2023-02-28T06:50:39;-0.80;99.90
18805;DHT22;9530;48.930;9.526;2023-02-28T06:53:06;-0.70;99.90
18805;DHT22;9530;48.930;9.526;2023-02-28T06:55:33;-0.70;99.90
18805;DHT22;9530;48.930;9.526;2023-02-28T06:58:01;-0.60;99.90
18805;DHT22;9530;48.930;9.526;2023-02-28T07:00:27;-0.60;99.90
18805;DHT22;9530;48.930;9.526;2023-02-28T07:02:54;-0.60;99.90
18805;DHT22;9530;48.930;9.526;2023-02-28T07:05:21;-0.50;99.90
18805;DHT22;9530;48.930;9.526;2023-02-28T07:07:47;-0.70;99.90
18805;DHT22;9530;48.930;9.526;2023-02-28T07:10:14;-0.60;99.90
18805;DHT22;9530;48.930;9.526;2023-02-28T07:12:42;-0.50;99.90
18805;DHT22;9530;48.930;9.526;2023-02-28T07:15:10;-0.50;99.90
18805;DHT22;9530;48.930;9.526;2023-02-28T07:17:37;-0.50;99.90
18805;DHT22;9530;48.930;9.526;2023-02-28T07:20:05;-0.40;99.90
18805;DHT22;9530;48.930;9.526;2023-02-28T07:22:32;-0.30;99.90
18805;DHT22;9530;48.930;9.526;2023-02-28T07:24:58;-0.20;99.90
18805;DHT22;9530;48.930;9.526;2023-02-28T07:27:25;-0.10;99.90
18805;DHT22;9530;48.930;9.526;2023-02-28T07:29:52;-0.20;99.90
18805;DHT22;9530;48.930;9.526;2023-02-28T07:32:21;-0.30;99.90
18805;DHT22;9530;48.930;9.526;2023-02-28T07:34:48;-0.20;99.90
18805;DHT22;9530;48.930;9.526;2023-02-28T07:37:15;-0.10;99.90
18805;DHT22;9530;48.930;9.526;2023-02-28T07:39:41;-0.10;99.90
18805;DHT22;9530;48.930;9.526;2023-02-28T07:42:08;0.00;99.90
18805;DHT22;9530;48.930;9.526;2023-02-28T07:44:37;0.00;99.90
18805;DHT22;9530;48.930;9.526;2023-02-28T07:47:06;0.00;99.90
18805;DHT22;9530;48.930;9.526;2023-02-28T07:49:34;-0.10;99.90
18805;DHT22;9530;48.930;9.526;2023-02-28T07:52:02;0.00;99.90
18805;DHT22;9530;48.930;9.526;2023-02-28T07:54:29;0.00;99.90
18805;DHT22;9530;48.930;9.526;2023-02-28T07:56:55;0.10;99.90
18805;DHT22;9530;48.930;9.526;2023-02-28T07:59:22;0.10;99.90
18805;DHT22;9530;48.930;9.526;2023-02-28T08:01:49;0.10;99.90
18805;DHT22;9530;48.930;9.526;2023-02-28T08:04:16;0.00;99.90
18805;DHT22;9530;48.930;9.526;2023-02-28T08:06:44;0.10;99.90
18805;DHT22;9530;48.930;9.526;2023-02-28T08:09:10;0.30;99.90
18805;DHT22;9530;48.930;9.526;2023-02-28T08:11:37;0.20;99.90
18805;DHT22;9530;48.930;9.526;2023-02-28T08:14:04;0.10;99.90
18805;DHT22;9530;48.930;9.526;2023-02-28T08:16:31;0.10;99.90
18805;DHT22;9530;48.930;9.526;2023-02-28T08:18:57;0.00;99.90
18805;DHT22;9530;48.930;9.526;2023-02-28T08:21:24;0.00;99.90
18805;DHT22;9530;48.930;9.526;2023-02-28T08:23:52;0.00;99.90
18805;DHT22;9530;48.930;9.526;2023-02-28T08:26:20;0.10;99.90
18805;DHT22;9530;48.930;9.526;2023-02-28T08:28:46;0.20;99.90
18805;DHT22;9530;48.930;9.526;2023-02-28T08:31:15;0.20;99.90
18805;DHT22;9530;48.930;9.526;2023-02-28T08:33:42;0.30;99.90
18805;DHT22;9530;48.930;9.526;2023-02-28T08:36:10;0.40;99.90
18805;DHT22;9530;48.930;9.526;2023-02-28T08:38:37;0.40;99.90
18805;DHT22;9530;48.930;9.526;2023-02-28T08:41:06;0.50;99.90
18805;DHT22;9530;48.930;9.526;2023-02-28T08:43:34;0.60;99.90
18805;DHT22;9530;48.930;9.526;2023-02-28T08:46:02;0.60;99.90
18805;DHT22;9530;48.930;9.526;2023-02-28T08:48:30;0.60;99.90
18805;DHT22;9530;48.930;9.526;2023-02-28T08:50:58;0.80;99.90
18805;DHT22;9530;48.930;9.526;2023-02-28T08:53:25;0.80;99.90
18805;DHT22;9530;48.930;9.526;2023-02-28T08:55:59;0.90;99.90
18805;DHT22;9530;48.930;9.526;2023-02-28T08:58:28;0.90;99.90
18805;DHT22;9530;48.930;9.526;2023-02-28T09:00:55;1.10;99.90
18805;DHT22;9530;48.930;9.526;2023-02-28T09:03:22;1.20;99.90
18805;DHT22;9530;48.930;9.526;2023-02-28T09:05:54;1.20;99.90
18805;DHT22;9530;48.930;9.526;2023-02-28T09:08:22;1.20;99.90
18805;DHT22;9530;48.930;9.526;2023-02-28T09:10:48;1.20;99.90
18805;DHT22;9530;48.930;9.526;2023-02-28T09:13:15;1.30;99.90
18805;DHT22;9530;48.930;9.526;2023-02-28T09:15:43;1.40;99.90
18805;DHT22;9530;48.930;9.526;2023-02-28T09:18:10;1.40;99.90
18805;DHT22;9530;48.930;9.526;2023-02-28T09:20:37;1.50;99.90
18805;DHT22;9530;48.930;9.526;2023-02-28T09:23:04;1.70;99.90
18805;DHT22;9530;48.930;9.526;2023-02-28T09:25:31;1.90;99.90
18805;DHT22;9530;48.930;9.526;2023-02-28T09:27:58;2.10;99.90
18805;DHT22;9530;48.930;9.526;2023-02-28T09:30:24;2.30;99.90
18805;DHT22;9530;48.930;9.526;2023-02-28T09:32:53;2.40;99.90
18805;DHT22;9530;48.930;9.526;2023-02-28T09:35:21;2.60;99.90
18805;DHT22;9530;48.930;9.526;2023-02-28T09:37:49;2.80;99.90
18805;DHT22;9530;48.930;9.526;2023-02-28T09:40:17;2.80;99.90
18805;DHT22;9530;48.930;9.526;2023-02-28T09:42:45;2.80;99.90
18805;DHT22;9530;48.930;9.526;2023-02-28T09:45:19;2.60;99.90
18805;DHT22;9530;48.930;9.526;2023-02-28T09:47:48;2.60;99.90
18805;DHT22;9530;48.930;9.526;2023-02-28T09:50:27;2.60;99.90
18805;DHT22;9530;48.930;9.526;2023-02-28T09:52:55;2.70;99.90
18805;DHT22;9530;48.930;9.526;2023-02-28T09:55:28;2.70;99.90
18805;DHT22;9530;48.930;9.526;2023-02-28T09:57:56;3.00;99.90
18805;DHT22;9530;48.930;9.526;2023-02-28T10:00:31;3.10;99.90
18805;DHT22;9530;48.930;9.526;2023-02-28T10:03:12;3.10;99.90
18805;DHT22;9530;48.930;9.526;2023-02-28T10:05:50;3.30;99.90
18805;DHT22;9530;48.930;9.526;2023-02-28T10:08:23;3.60;99.90
18805;DHT22;9530;48.930;9.526;2023-02-28T10:10:55;3.70;99.90
18805;DHT22;9530;48.930;9.526;2023-02-28T10:13:25;4.00;99.90
18805;DHT22;9530;48.930;9.526;2023-02-28T10:15:56;4.00;99.90
18805;DHT22;9530;48.930;9.526;2023-02-28T10:18:28;3.90;99.90
18805;DHT22;9530;48.930;9.526;2023-02-28T10:20:58;3.70;99.90
18805;DHT22;9530;48.930;9.526;2023-02-28T10:23:28;3.60;99.90
18805;DHT22;9530;48.930;9.526;2023-02-28T10:25:58;3.60;99.90
18805;DHT22;9530;48.930;9.526;2023-02-28T10:28:26;3.20;99.90
18805;DHT22;9530;48.930;9.526;2023-02-28T10:30:56;3.30;99.90
18805;DHT22;9530;48.930;9.526;2023-02-28T10:33:25;3.50;99.90
18805;DHT22;9530;48.930;9.526;2023-02-28T10:35:54;3.70;99.90
18805;DHT22;9530;48.930;9.526;2023-02-28T10:38:24;4.00;99.90
18805;DHT22;9530;48.930;9.526;2023-02-28T10:40:51;4.30;99.90
18805;DHT22;9530;48.930;9.526;2023-02-28T10:43:27;4.60;99.90
18805;DHT22;9530;48.930;9.526;2023-02-28T10:46:01;4.80;99.90
18805;DHT22;9530;48.930;9.526;2023-02-28T10:48:34;4.80;99.90
18805;DHT22;9530;48.930;9.526;2023-02-28T10:51:04;4.50;99.90
18805;DHT22;9530;48.930;9.526;2023-02-28T10:53:39;4.10;99.90
18805;DHT22;9530;48.930;9.526;2023-02-28T10:56:17;3.80;99.90
18805;DHT22;9530;48.930;9.526;2023-02-28T10:59:03;3.80;99.90
18805;DHT22;9530;48.930;9.526;2023-02-28T11:01:38;3.90;99.90
18805;DHT22;9530;48.930;9.526;2023-02-28T11:04:17;4.10;99.90
18805;DHT22;9530;48.930;9.526;2023-02-28T11:06:45;4.10;99.90
18805;DHT22;9530;48.930;9.526;2023-02-28T11:09:21;4.10;99.90
18805;DHT22;9530;48.930;9.526;2023-02-28T11:11:49;4.30;99.90
18805;DHT22;9530;48.930;9.526;2023-02-28T11:14:20;4.50;99.90
18805;DHT22;9530;48.930;9.526;2023-02-28T11:16:48;4.60;99.90
18805;DHT22;9530;48.930;9.526;2023-02-28T11:19:19;4.70;99.90
18805;DHT22;9530;48.930;9.526;2023-02-28T11:21:52;4.70;99.90
18805;DHT22;9530;48.930;9.526;2023-02-28T11:24:24;4.80;99.90
18805;DHT22;9530;48.930;9.526;2023-02-28T11:26:52;5.00;99.90
18805;DHT22;9530;48.930;9.526;2023-02-28T11:29:21;5.10;99.90
18805;DHT22;9530;48.930;9.526;2023-02-28T11:32:14;5.00;99.90
18805;DHT22;9530;48.930;9.526;2023-02-28T11:34:43;4.80;99.90
18805;DHT22;9530;48.930;9.526;2023-02-28T11:37:13;4.60;99.90
18805;DHT22;9530;48.930;9.526;2023-02-28T11:39:42;4.50;99.90
18805;DHT22;9530;48.930;9.526;2023-02-28T11:42:29;4.50;99.90
18805;DHT22;9530;48.930;9.526;2023-02-28T11:45:24;4.40;99.90
18805;DHT22;9530;48.930;9.526;2023-02-28T11:48:04;4.20;99.90
18805;DHT22;9530;48.930;9.526;2023-02-28T11:50:47;4.20;99.90
18805;DHT22;9530;48.930;9.526;2023-02-28T11:53:22;4.40;99.90
18805;DHT22;9530;48.930;9.526;2023-02-28T11:56:01;4.40;99.90
18805;DHT22;9530;48.930;9.526;2023-02-28T11:58:37;4.50;99.90
18805;DHT22;9530;48.930;9.526;2023-02-28T12:01:15;4.60;99.90
18805;DHT22;9530;48.930;9.526;2023-02-28T12:03:50;4.60;99.90
18805;DHT22;9530;48.930;9.526;2023-02-28T12:06:25;4.80;99.90
18805;DHT22;9530;48.930;9.526;2023-02-28T12:09:19;5.00;99.90
18805;DHT22;9530;48.930;9.526;2023-02-28T12:11:52;5.10;99.90
18805;DHT22;9530;48.930;9.526;2023-02-28T12:14:46;5.10;99.90
18805;DHT22;9530;48.930;9.526;2023-02-28T12:17:22;5.20;99.90
18805;DHT22;9530;48.930;9.526;2023-02-28T12:20:02;5.20;99.90
18805;DHT22;9530;48.930;9.526;2023-02-28T12:22:38;5.40;99.90
18805;DHT22;9530;48.930;9.526;2023-02-28T12:25:31;5.50;99.90
18805;DHT22;9530;48.930;9.526;2023-02-28T12:28:09;5.50;99.90
18805;DHT22;9530;48.930;9.526;2023-02-28T12:30:41;5.60;99.90
18805;DHT22;9530;48.930;9.526;2023-02-28T12:33:11;5.70;99.90
18805;DHT22;9530;48.930;9.526;2023-02-28T12:35:49;5.70;99.90
18805;DHT22;9530;48.930;9.526;2023-02-28T12:38:20;5.90;99.90
18805;DHT22;9530;48.930;9.526;2023-02-28T12:40:52;5.70;99.90
18805;DHT22;9530;48.930;9.526;2023-02-28T12:43:24;5.60;99.90
18805;DHT22;9530;48.930;9.526;2023-02-28T12:45:55;5.60;99.90
18805;DHT22;9530;48.930;9.526;2023-02-28T12:48:27;5.70;99.90
18805;DHT22;9530;48.930;9.526;2023-02-28T12:50:56;5.80;99.90
18805;DHT22;9530;48.930;9.526;2023-02-28T12:53:27;5.80;99.90
18805;DHT22;9530;48.930;9.526;2023-02-28T12:56:07;5.90;99.90
18805;DHT22;9530;48.930;9.526;2023-02-28T12:58:39;5.60;99.90
18805;DHT22;9530;48.930;9.526;2023-02-28T13:01:36;5.80;99.90
18805;DHT22;9530;48.930;9.526;2023-02-28T13:07:27;6.10;99.90
18805;DHT22;9530;48.930;9.526;2023-02-28T13:09:59;6.00;99.90
18805;DHT22;9530;48.930;9.526;2023-02-28T13:12:27;5.80;99.90
18805;DHT22;9530;48.930;9.526;2023-02-28T13:15:04;5.50;99.90
18805;DHT22;9530;48.930;9.526;2023-02-28T13:17:32;5.40;99.90
18805;DHT22;9530;48.930;9.526;2023-02-28T13:19:59;5.40;99.90
18805;DHT22;9530;48.930;9.526;2023-02-28T13:22:40;5.40;99.90
18805;DHT22;9530;48.930;9.526;2023-02-28T13:28:10;5.70;99.90
18805;DHT22;9530;48.930;9.526;2023-02-28T13:34:06;5.60;99.90
18805;DHT22;9530;48.930;9.526;2023-02-28T13:36:38;5.60;99.90
18805;DHT22;9530;48.930;9.526;2023-02-28T13:39:45;5.70;99.90
18805;DHT22;9530;48.930;9.526;2023-02-28T13:42:33;5.80;99.90
18805;DHT22;9530;48.930;9.526;2023-02-28T13:45:23;6.00;99.90
18805;DHT22;9530;48.930;9.526;2023-02-28T13:47:55;5.90;99.90
18805;DHT22;9530;48.930;9.526;2023-02-28T13:50:29;5.70;99.90
18805;DHT22;9530;48.930;9.526;2023-02-28T13:53:07;5.50;99.90
18805;DHT22;9530;48.930;9.526;2023-02-28T13:55:45;5.50;99.90
18805;DHT22;9530;48.930;9.526;2023-02-28T13:58:25;5.50;99.90
18805;DHT22;9530;48.930;9.526;2023-02-28T14:01:15;5.60;99.90
18805;DHT22;9530;48.930;9.526;2023-02-28T14:06:47;5.50;99.90
18805;DHT22;9530;48.930;9.526;2023-02-28T14:09:23;5.50;99.90
18805;DHT22;9530;48.930;9.526;2023-02-28T14:11:50;5.50;99.90
18805;DHT22;9530;48.930;9.526;2023-02-28T14:17:17;5.50;99.90
18805;DHT22;9530;48.930;9.526;2023-02-28T14:19:45;5.60;99.90
18805;DHT22;9530;48.930;9.526;2023-02-28T14:22:24;5.50;99.90
18805;DHT22;9530;48.930;9.526;2023-02-28T14:25:08;5.50;99.90
18805;DHT22;9530;48.930;9.526;2023-02-28T14:27:42;5.50;99.90
18805;DHT22;9530;48.930;9.526;2023-02-28T14:30:29;5.60;99.90
18805;DHT22;9530;48.930;9.526;2023-02-28T14:33:14;5.70;99.90
18805;DHT22;9530;48.930;9.526;2023-02-28T14:35:57;5.70;99.90
18805;DHT22;9530;48.930;9.526;2023-02-28T14:38:32;5.70;99.90
18805;DHT22;9530;48.930;9.526;2023-02-28T14:41:03;5.80;99.90
18805;DHT22;9530;48.930;9.526;2023-02-28T14:43:31;5.80;99.90
18805;DHT22;9530;48.930;9.526;2023-02-28T14:46:00;6.00;99.90
18805;DHT22;9530;48.930;9.526;2023-02-28T14:48:27;6.10;99.90
18805;DHT22;9530;48.930;9.526;2023-02-28T14:50:57;5.90;99.90
18805;DHT22;9530;48.930;9.526;2023-02-28T14:53:28;5.90;99.90
18805;DHT22;9530;48.930;9.526;2023-02-28T14:55:55;5.90;99.90
18805;DHT22;9530;48.930;9.526;2023-02-28T14:58:24;5.90;99.90
18805;DHT22;9530;48.930;9.526;2023-02-28T15:00:53;5.90;99.90
18805;DHT22;9530;48.930;9.526;2023-02-28T15:03:22;5.90;99.90
18805;DHT22;9530;48.930;9.526;2023-02-28T15:05:52;5.80;99.90
18805;DHT22;9530;48.930;9.526;2023-02-28T15:08:20;5.80;99.90
18805;DHT22;9530;48.930;9.526;2023-02-28T15:10:53;5.90;99.90
18805;DHT22;9530;48.930;9.526;2023-02-28T15:13:21;5.90;99.90
18805;DHT22;9530;48.930;9.526;2023-02-28T15:15:51;5.80;99.90
18805;DHT22;9530;48.930;9.526;2023-02-28T15:18:27;5.80;99.90
18805;DHT22;9530;48.930;9.526;2023-02-28T15:20:55;5.70;99.90
18805;DHT22;9530;48.930;9.526;2023-02-28T15:23:23;5.60;99.90
18805;DHT22;9530;48.930;9.526;2023-02-28T15:25:52;5.60;99.90
18805;DHT22;9530;48.930;9.526;2023-02-28T15:28:21;5.70;99.90
18805;DHT22;9530;48.930;9.526;2023-02-28T15:30:55;5.60;99.90
18805;DHT22;9530;48.930;9.526;2023-02-28T15:33:24;5.60;99.90
18805;DHT22;9530;48.930;9.526;2023-02-28T15:35:51;5.70;99.90
18805;DHT22;9530;48.930;9.526;2023-02-28T15:38:29;5.80;99.90
18805;DHT22;9530;48.930;9.526;2023-02-28T15:40:58;5.70;99.90
18805;DHT22;9530;48.930;9.526;2023-02-28T15:43:27;5.70;99.90
18805;DHT22;9530;48.930;9.526;2023-02-28T15:45:57;5.60;99.90
18805;DHT22;9530;48.930;9.526;2023-02-28T15:48:27;5.60;99.90
18805;DHT22;9530;48.930;9.526;2023-02-28T15:50:56;5.40;99.90
18805;DHT22;9530;48.930;9.526;2023-02-28T15:53:27;5.40;99.90
18805;DHT22;9530;48.930;9.526;2023-02-28T15:56:00;5.30;99.90
18805;DHT22;9530;48.930;9.526;2023-02-28T15:58:27;5.10;99.90
18805;DHT22;9530;48.930;9.526;2023-02-28T16:01:16;5.00;99.90
18805;DHT22;9530;48.930;9.526;2023-02-28T16:03:45;5.00;99.90
18805;DHT22;9530;48.930;9.526;2023-02-28T16:06:36;5.00;99.90
18805;DHT22;9530;48.930;9.526;2023-02-28T16:09:05;5.00;99.90
18805;DHT22;9530;48.930;9.526;2023-02-28T16:11:36;4.90;99.90
18805;DHT22;9530;48.930;9.526;2023-02-28T16:14:04;4.90;99.90
18805;DHT22;9530;48.930;9.526;2023-02-28T16:16:31;4.90;99.90
18805;DHT22;9530;48.930;9.526;2023-02-28T16:18:59;4.90;99.90
18805;DHT22;9530;48.930;9.526;2023-02-28T16:21:25;5.00;99.90
18805;DHT22;9530;48.930;9.526;2023-02-28T16:23:52;5.10;99.90
18805;DHT22;9530;48.930;9.526;2023-02-28T16:26:21;5.20;99.90
18805;DHT22;9530;48.930;9.526;2023-02-28T16:28:51;5.40;99.90
18805;DHT22;9530;48.930;9.526;2023-02-28T16:31:18;5.50;99.90
18805;DHT22;9530;48.930;9.526;2023-02-28T16:33:45;5.80;99.90
18805;DHT22;9530;48.930;9.526;2023-02-28T16:36:17;5.80;99.90
18805;DHT22;9530;48.930;9.526;2023-02-28T16:38:44;5.60;99.90